Аэропорт: Петропавловск. Петропавловск

ICAO: UACP

METAR:
Информация по данной станции не доступна
METAR:
2019-09-21 08:02:00
TAF UACP 210802Z 2109/2118 21005MPS 9999 SCT030 TEMPO 2109/2112 BKN030CB TEMPO 2112/2115 VRB02MPS 4000 -SHRA BKN011 BKN020CB